createdAt,value
2022-12-19T00:00:21.759Z,-2.37
2022-12-19T00:02:24.621Z,-2.39
2022-12-19T00:04:28.786Z,-2.37
2022-12-19T00:06:32.110Z,-2.34
2022-12-19T00:08:34.770Z,-2.28
2022-12-19T00:10:37.432Z,-2.31
2022-12-19T00:12:40.154Z,-2.33
2022-12-19T00:14:42.868Z,-2.27
2022-12-19T00:16:46.024Z,-2.27
2022-12-19T00:18:50.572Z,-2.36
2022-12-19T00:21:01.255Z,-2.32
2022-12-19T00:23:03.942Z,-2.26
2022-12-19T00:25:07.393Z,-2.31
2022-12-19T00:27:11.109Z,-2.30
2022-12-19T00:29:14.517Z,-2.33
2022-12-19T00:31:19.288Z,-2.31
2022-12-19T00:33:21.990Z,-2.26
2022-12-19T00:35:24.926Z,-2.33
2022-12-19T00:37:29.025Z,-2.25
2022-12-19T00:39:31.774Z,-2.23
2022-12-19T00:41:36.596Z,-2.24
2022-12-19T00:43:40.126Z,-1.92
2022-12-19T00:45:42.895Z,-2.03
2022-12-19T00:47:45.635Z,-2.08
2022-12-19T00:49:48.361Z,-2.16
2022-12-19T00:51:52.423Z,-2.06
2022-12-19T00:53:58.429Z,-2.10
2022-12-19T00:56:03.689Z,-2.10
2022-12-19T00:58:06.373Z,-2.17
2022-12-19T01:00:10.826Z,-2.06
2022-12-19T01:02:13.670Z,-2.00
2022-12-19T01:04:28.163Z,-2.04
2022-12-19T01:06:31.561Z,-2.26
2022-12-19T01:08:34.715Z,-2.27
2022-12-19T01:10:38.742Z,-2.44
2022-12-19T01:12:46.238Z,-2.57
2022-12-19T01:14:48.129Z,-2.53
2022-12-19T01:16:51.351Z,-2.56
2022-12-19T01:18:54.061Z,-2.48
2022-12-19T01:21:00.252Z,-2.55
2022-12-19T01:23:02.966Z,-2.58
2022-12-19T01:25:06.612Z,-2.35
2022-12-19T01:27:10.674Z,-2.44
2022-12-19T01:29:13.547Z,-2.48
2022-12-19T01:31:16.236Z,-2.44
2022-12-19T01:33:21.898Z,-2.46
2022-12-19T01:35:25.503Z,-2.52
2022-12-19T01:37:28.261Z,-2.48
2022-12-19T01:39:30.972Z,-2.51
2022-12-19T01:41:36.330Z,-2.31
2022-12-19T01:43:56.664Z,-2.28
2022-12-19T01:46:01.901Z,-2.18
2022-12-19T01:48:18.422Z,-2.21
2022-12-19T01:50:25.208Z,-2.41
2022-12-19T01:52:28.036Z,-2.47
2022-12-19T01:54:34.190Z,-2.30
2022-12-19T01:56:42.226Z,-2.30
2022-12-19T01:58:47.046Z,-2.20
2022-12-19T02:00:51.270Z,-2.17
2022-12-19T02:02:57.991Z,-2.23
2022-12-19T02:05:01.566Z,-2.18
2022-12-19T02:07:08.678Z,-2.20
2022-12-19T02:09:19.253Z,-2.32
2022-12-19T02:11:21.922Z,-2.33
2022-12-19T02:13:25.313Z,-2.27
2022-12-19T02:15:34.109Z,-2.27
2022-12-19T02:17:52.494Z,-2.38
2022-12-19T02:20:42.864Z,-2.45
2022-12-19T02:23:02.183Z,-2.38
2022-12-19T02:25:25.985Z,-2.58
2022-12-19T02:27:55.984Z,-2.63
2022-12-19T02:30:07.130Z,-2.58
2022-12-19T02:32:20.088Z,-2.53
2022-12-19T02:34:30.673Z,-2.49
2022-12-19T02:36:40.295Z,-2.37
2022-12-19T02:38:53.910Z,-2.36
2022-12-19T02:41:01.870Z,-2.35
2022-12-19T02:43:05.800Z,-2.36
2022-12-19T02:45:11.331Z,-2.24
2022-12-19T02:47:20.460Z,-2.23
2022-12-19T02:49:31.029Z,-2.18
2022-12-19T02:51:34.232Z,-2.17
2022-12-19T02:53:38.275Z,-2.11
2022-12-19T02:55:47.912Z,-2.11
2022-12-19T02:58:24.004Z,-2.05
2022-12-19T03:00:28.660Z,-1.98
2022-12-19T03:02:39.288Z,-1.95
2022-12-19T03:04:48.764Z,-1.93
2022-12-19T03:06:54.862Z,-1.90
2022-12-19T03:09:03.744Z,-1.72
2022-12-19T03:11:08.993Z,-1.80
2022-12-19T03:13:15.461Z,-1.82
2022-12-19T03:15:19.863Z,-1.69
2022-12-19T03:17:22.609Z,-1.68
2022-12-19T03:19:26.829Z,-1.76
2022-12-19T03:21:35.627Z,-1.60
2022-12-19T03:23:39.202Z,-1.54
2022-12-19T03:25:45.485Z,-1.34
2022-12-19T03:27:50.676Z,-1.39
2022-12-19T03:29:57.856Z,-1.41
2022-12-19T03:32:01.927Z,-1.38
2022-12-19T03:34:09.894Z,-1.42
2022-12-19T03:36:20.578Z,-1.48
2022-12-19T03:38:23.956Z,-1.55
2022-12-19T03:40:29.268Z,-1.56
2022-12-19T03:42:51.757Z,-1.58
2022-12-19T03:44:58.626Z,-1.47
2022-12-19T03:47:07.923Z,-1.36
2022-12-19T03:49:11.200Z,-1.37
2022-12-19T03:51:31.237Z,-1.40
2022-12-19T03:53:46.823Z,-1.43
2022-12-19T03:55:55.677Z,-1.28
2022-12-19T03:58:02.131Z,-1.28
2022-12-19T04:00:08.606Z,-1.22
2022-12-19T04:02:14.228Z,-1.18
2022-12-19T04:04:18.181Z,-1.25
2022-12-19T04:06:22.674Z,-1.23
2022-12-19T04:08:25.847Z,-1.21
2022-12-19T04:10:30.049Z,-1.19
2022-12-19T04:12:37.668Z,-1.16
2022-12-19T04:14:41.331Z,-1.15
2022-12-19T04:16:49.289Z,-1.09
2022-12-19T04:18:59.181Z,-0.98
2022-12-19T04:21:06.623Z,-1.04
2022-12-19T04:23:18.773Z,-1.06
2022-12-19T04:25:29.568Z,-1.07
2022-12-19T04:27:34.894Z,-1.10
2022-12-19T04:29:39.598Z,-1.07
2022-12-19T04:31:43.067Z,-1.01
2022-12-19T04:33:45.689Z,-0.93
2022-12-19T04:35:48.570Z,-0.98
2022-12-19T04:37:52.304Z,-1.08
2022-12-19T04:39:56.308Z,-1.09
2022-12-19T04:41:58.972Z,-0.97
2022-12-19T04:44:01.699Z,-0.90
2022-12-19T04:46:04.571Z,-0.83
2022-12-19T04:48:07.618Z,-0.78
2022-12-19T04:50:12.091Z,-0.88
2022-12-19T04:52:14.759Z,-0.82
2022-12-19T04:54:17.456Z,-0.83
2022-12-19T04:56:21.537Z,-0.72
2022-12-19T04:58:24.315Z,-0.67
2022-12-19T05:00:27.145Z,-0.64
2022-12-19T05:02:30.003Z,-0.75
2022-12-19T05:04:32.781Z,-0.73
2022-12-19T05:06:35.542Z,-0.65
2022-12-19T05:08:40.479Z,-0.60
2022-12-19T05:10:43.111Z,-0.59
2022-12-19T05:12:48.121Z,-0.48
2022-12-19T05:14:50.779Z,-0.52
2022-12-19T05:16:58.856Z,-0.53
2022-12-19T05:19:03.226Z,-0.60
2022-12-19T05:21:06.522Z,-0.62
2022-12-19T05:23:15.308Z,-0.50
2022-12-19T05:25:19.659Z,-0.43
2022-12-19T05:27:22.589Z,-0.42
2022-12-19T05:29:26.702Z,-0.39
2022-12-19T05:31:29.457Z,-0.30
2022-12-19T05:33:32.245Z,-0.17
2022-12-19T05:35:35.263Z,-0.16
2022-12-19T05:37:38.021Z,-0.18
2022-12-19T05:39:40.714Z,-0.27
2022-12-19T05:41:46.366Z,-0.38
2022-12-19T05:43:53.819Z,-0.60
2022-12-19T05:45:57.879Z,-0.72
2022-12-19T05:48:01.648Z,-0.72
2022-12-19T05:50:05.681Z,-0.70
2022-12-19T05:52:08.484Z,-0.72
2022-12-19T05:54:11.431Z,-0.77
2022-12-19T05:56:16.381Z,-0.73
2022-12-19T05:58:20.459Z,-0.68
2022-12-19T06:00:23.380Z,-0.69
2022-12-19T06:02:27.593Z,-0.62
2022-12-19T06:04:30.689Z,-0.63
2022-12-19T06:06:33.389Z,-0.63
2022-12-19T06:08:36.120Z,-0.59
2022-12-19T06:10:38.765Z,-0.55
2022-12-19T06:12:41.681Z,-0.58
2022-12-19T06:14:44.540Z,-0.60
2022-12-19T06:16:47.356Z,-0.68
2022-12-19T06:18:51.670Z,-0.67
2022-12-19T06:20:59.278Z,-0.71
2022-12-19T06:23:02.171Z,-0.68
2022-12-19T06:25:05.561Z,-0.71
2022-12-19T06:27:08.298Z,-0.74
2022-12-19T06:29:11.144Z,-0.64
2022-12-19T06:31:14.224Z,-0.54
2022-12-19T06:33:17.089Z,-0.53
2022-12-19T06:35:21.065Z,-0.50
2022-12-19T06:37:23.802Z,-0.55
2022-12-19T06:39:26.414Z,-0.41
2022-12-19T06:41:46.739Z,-0.40
2022-12-19T06:43:53.354Z,-0.32
2022-12-19T06:45:58.271Z,-0.35
2022-12-19T06:48:00.959Z,-0.23
2022-12-19T06:50:03.656Z,-0.23
2022-12-19T06:52:09.293Z,-0.22
2022-12-19T06:54:12.272Z,-0.17
2022-12-19T06:56:17.059Z,-0.14
2022-12-19T06:58:24.106Z,-0.03
2022-12-19T07:00:27.398Z,-0.03
2022-12-19T07:02:32.602Z,0.05
2022-12-19T07:04:40.450Z,0.12
2022-12-19T07:06:48.735Z,0.19
2022-12-19T07:08:54.071Z,0.01
2022-12-19T07:10:56.802Z,-0.03
2022-12-19T07:12:59.553Z,-0.03
2022-12-19T07:15:02.393Z,-0.08
2022-12-19T07:17:06.268Z,-0.08
2022-12-19T07:19:10.145Z,0.00
2022-12-19T07:21:13.731Z,0.08
2022-12-19T07:23:19.825Z,0.10
2022-12-19T07:25:23.989Z,0.18
2022-12-19T07:27:35.188Z,0.20
2022-12-19T07:29:38.664Z,0.24
2022-12-19T07:31:42.486Z,0.22
2022-12-19T07:33:45.145Z,0.34
2022-12-19T07:35:47.793Z,0.30
2022-12-19T07:37:50.962Z,0.31
2022-12-19T07:39:53.879Z,0.26
2022-12-19T07:41:57.868Z,0.27
2022-12-19T07:44:00.579Z,0.42
2022-12-19T07:46:03.252Z,0.47
2022-12-19T07:48:07.916Z,0.64
2022-12-19T07:50:11.768Z,0.71
2022-12-19T07:52:14.543Z,0.71
2022-12-19T07:54:17.249Z,0.73
2022-12-19T07:56:19.931Z,0.67
2022-12-19T07:58:24.539Z,0.81
2022-12-19T08:00:27.295Z,0.97
2022-12-19T08:02:30.131Z,0.99
2022-12-19T08:04:34.586Z,1.23
2022-12-19T08:06:41.095Z,1.36
2022-12-19T08:08:44.107Z,1.41
2022-12-19T08:10:47.199Z,1.39
2022-12-19T08:12:50.183Z,1.34
2022-12-19T08:14:57.092Z,1.25
2022-12-19T08:19:27.245Z,1.13
2022-12-19T08:21:30.536Z,1.24
2022-12-19T08:23:34.379Z,1.24
2022-12-19T08:25:39.730Z,1.16
2022-12-19T08:27:42.984Z,1.30
2022-12-19T08:29:45.628Z,1.39
2022-12-19T08:31:49.740Z,1.12
2022-12-19T08:33:52.763Z,1.16
2022-12-19T08:35:55.913Z,1.34
2022-12-19T08:37:58.762Z,1.41
2022-12-19T08:40:01.495Z,1.47
2022-12-19T08:42:04.506Z,1.41
2022-12-19T08:44:07.316Z,1.40
2022-12-19T08:46:10.514Z,1.51
2022-12-19T08:48:14.667Z,1.68
2022-12-19T08:50:17.709Z,1.88
2022-12-19T08:52:20.419Z,1.91
2022-12-19T08:54:23.159Z,1.90
2022-12-19T08:56:25.840Z,2.01
2022-12-19T08:58:30.450Z,2.03
2022-12-19T09:00:33.122Z,2.05
2022-12-19T09:02:36.026Z,2.19
2022-12-19T09:06:01.464Z,2.09
2022-12-19T09:07:02.888Z,1.96
2022-12-19T09:09:06.863Z,1.85
2022-12-19T09:11:11.660Z,1.90
2022-12-19T09:13:14.268Z,1.78
2022-12-19T09:15:17.112Z,1.95
2022-12-19T09:17:20.809Z,1.90
2022-12-19T09:19:23.654Z,2.07
2022-12-19T09:21:30.127Z,2.16
2022-12-19T09:23:33.171Z,2.22
2022-12-19T09:25:36.736Z,2.34
2022-12-19T09:28:17.593Z,2.49
2022-12-19T09:30:02.211Z,2.63
2022-12-19T09:32:05.161Z,2.64
2022-12-19T09:34:07.827Z,2.53
2022-12-19T09:36:13.845Z,2.76
2022-12-19T09:38:17.938Z,2.75
2022-12-19T09:40:20.585Z,2.61
2022-12-19T09:42:41.850Z,2.81
2022-12-19T09:45:05.597Z,2.74
2022-12-19T09:47:14.401Z,3.02
2022-12-19T09:49:19.833Z,3.05
2022-12-19T09:51:33.887Z,2.81
2022-12-19T09:53:45.676Z,2.70
2022-12-19T09:55:59.269Z,2.80
2022-12-19T09:58:08.095Z,2.76
2022-12-19T10:00:14.587Z,2.69
2022-12-19T10:02:28.419Z,2.92
2022-12-19T10:04:37.194Z,3.06
2022-12-19T10:07:19.832Z,3.61
2022-12-19T10:09:42.711Z,3.59
2022-12-19T10:12:40.856Z,3.74
2022-12-19T10:14:26.207Z,3.96
2022-12-19T10:16:38.006Z,3.95
2022-12-19T10:18:56.398Z,3.73
2022-12-19T10:21:07.534Z,3.75
2022-12-19T10:23:30.394Z,3.69
2022-12-19T10:25:50.668Z,3.69
2022-12-19T10:28:00.462Z,4.01
2022-12-19T10:30:12.822Z,3.73
2022-12-19T10:32:23.315Z,3.66
2022-12-19T10:34:33.703Z,3.94
2022-12-19T10:39:17.692Z,3.70
2022-12-19T10:41:25.034Z,4.09
2022-12-19T10:43:44.800Z,4.14
2022-12-19T10:45:52.508Z,4.10
2022-12-19T10:47:58.516Z,4.04
2022-12-19T10:50:05.641Z,4.05
2022-12-19T10:52:13.450Z,4.15
2022-12-19T10:54:16.214Z,3.94
2022-12-19T10:56:25.493Z,4.05
2022-12-19T10:58:35.822Z,3.94
2022-12-19T11:00:39.173Z,3.98
2022-12-19T11:02:45.172Z,3.90
2022-12-19T11:04:49.010Z,3.97
2022-12-19T11:07:04.883Z,4.02
2022-12-19T11:09:19.773Z,4.16
2022-12-19T11:12:39.107Z,4.21
2022-12-19T11:18:55.406Z,4.17
2022-12-19T11:23:51.286Z,4.18
2022-12-19T11:27:48.677Z,4.41
2022-12-19T11:29:34.133Z,4.47
2022-12-19T11:30:06.373Z,4.26
2022-12-19T11:30:39.359Z,4.58
2022-12-19T11:30:48.854Z,4.55
2022-12-19T11:31:51.068Z,4.71
2022-12-19T11:33:20.541Z,4.72
2022-12-19T11:35:37.085Z,4.68
2022-12-19T11:37:45.488Z,4.72
2022-12-19T11:39:51.229Z,4.74
2022-12-19T11:42:01.673Z,4.83
2022-12-19T11:44:12.121Z,4.73
2022-12-19T11:46:27.292Z,4.80
2022-12-19T11:48:38.508Z,4.89
2022-12-19T11:51:00.104Z,5.01
2022-12-19T11:53:16.830Z,5.14
2022-12-19T11:55:24.963Z,4.92
2022-12-19T11:57:28.592Z,4.99
2022-12-19T11:59:36.541Z,4.89
2022-12-19T12:02:32.938Z,4.81
2022-12-19T12:04:54.411Z,4.63
2022-12-19T12:06:58.292Z,4.78
2022-12-19T12:13:30.546Z,4.53
2022-12-19T12:17:28.072Z,4.45
2022-12-19T12:23:20.793Z,4.54
2022-12-19T12:25:57.183Z,4.50
2022-12-19T12:31:00.295Z,4.60
2022-12-19T12:31:27.954Z,4.80
2022-12-19T12:31:48.868Z,4.89
2022-12-19T12:31:52.228Z,4.73
2022-12-19T12:31:58.469Z,4.86
2022-12-19T12:35:38.454Z,4.86
2022-12-19T12:35:54.018Z,5.01
2022-12-19T12:38:16.639Z,4.73
2022-12-19T12:40:10.489Z,4.70
2022-12-19T12:42:31.233Z,4.87
2022-12-19T12:44:41.108Z,4.99
2022-12-19T12:46:51.009Z,5.00
2022-12-19T12:49:01.580Z,5.08
2022-12-19T12:51:06.203Z,5.11
2022-12-19T12:53:11.285Z,5.07
2022-12-19T12:55:19.186Z,5.03
2022-12-19T12:57:36.252Z,5.16
2022-12-19T12:59:39.174Z,5.10
2022-12-19T13:01:42.551Z,5.02
2022-12-19T13:03:55.624Z,5.34
2022-12-19T13:06:08.214Z,5.22
2022-12-19T13:08:47.417Z,5.34
2022-12-19T13:10:56.083Z,5.12
2022-12-19T13:13:01.685Z,5.04
2022-12-19T13:15:34.340Z,4.81
2022-12-19T13:18:06.805Z,4.94
2022-12-19T13:20:44.727Z,4.77
2022-12-19T13:23:03.739Z,4.69
2022-12-19T13:25:46.992Z,4.46
2022-12-19T13:27:50.459Z,4.47
2022-12-19T13:29:56.972Z,4.52
2022-12-19T13:32:14.183Z,4.35
2022-12-19T13:34:20.145Z,4.43
2022-12-19T13:39:57.353Z,4.54
2022-12-19T13:39:58.422Z,4.57
2022-12-19T13:42:34.144Z,4.57
2022-12-19T13:44:40.868Z,4.46
2022-12-19T13:46:45.569Z,4.48
2022-12-19T13:48:51.226Z,4.50
2022-12-19T13:50:55.514Z,4.67
2022-12-19T13:52:58.453Z,4.75
2022-12-19T13:55:02.564Z,4.78
2022-12-19T13:57:09.288Z,4.73
2022-12-19T13:59:12.798Z,4.91
2022-12-19T14:01:21.536Z,5.02
2022-12-19T14:03:34.433Z,5.07
2022-12-19T14:06:17.115Z,5.16
2022-12-19T14:08:05.183Z,5.37
2022-12-19T14:11:35.024Z,5.26
2022-12-19T14:13:57.463Z,5.34
2022-12-19T14:15:28.714Z,5.41
2022-12-19T14:17:31.438Z,5.35
2022-12-19T14:19:40.106Z,5.28
2022-12-19T14:22:08.755Z,5.20
2022-12-19T14:24:16.977Z,5.14
2022-12-19T14:28:20.527Z,5.05
2022-12-19T14:28:55.866Z,5.06
2022-12-19T14:31:01.629Z,5.06
2022-12-19T14:33:44.568Z,5.06
2022-12-19T14:36:09.709Z,5.04
2022-12-19T14:39:25.534Z,5.05
2022-12-19T14:40:28.042Z,5.02
2022-12-19T14:43:57.518Z,5.01
2022-12-19T14:52:34.429Z,4.93
2022-12-19T14:54:05.917Z,4.95
2022-12-19T14:54:10.512Z,4.94
2022-12-19T14:54:55.334Z,4.83
2022-12-19T14:56:16.052Z,4.94
2022-12-19T14:58:54.982Z,4.78
2022-12-19T15:00:34.959Z,5.14
2022-12-19T15:02:49.437Z,5.06
2022-12-19T15:05:04.237Z,4.95
2022-12-19T15:07:12.254Z,4.79
2022-12-19T15:10:59.425Z,4.65
2022-12-19T15:12:39.711Z,4.58
2022-12-19T15:14:56.395Z,4.56
2022-12-19T15:17:04.402Z,4.70
2022-12-19T15:19:13.387Z,4.71
2022-12-19T15:21:16.168Z,4.59
2022-12-19T15:23:22.380Z,4.49
2022-12-19T15:26:01.241Z,4.58
2022-12-19T15:27:48.318Z,4.36
2022-12-19T15:29:53.067Z,4.25
2022-12-19T15:31:55.761Z,4.28
2022-12-19T15:34:33.172Z,4.34
2022-12-19T15:36:22.123Z,4.38
2022-12-19T15:38:24.890Z,4.47
2022-12-19T15:40:27.633Z,4.57
2022-12-19T15:42:30.343Z,4.64
2022-12-19T15:44:35.374Z,4.43
2022-12-19T15:46:46.402Z,4.43
2022-12-19T15:48:51.148Z,4.43
2022-12-19T15:50:53.822Z,4.55
2022-12-19T15:52:58.613Z,4.38
2022-12-19T15:55:01.316Z,4.26
2022-12-19T15:57:04.064Z,4.17
2022-12-19T15:59:13.619Z,4.11
2022-12-19T16:01:16.327Z,4.10
2022-12-19T16:03:23.560Z,4.17
2022-12-19T16:05:29.176Z,4.07
2022-12-19T16:07:32.168Z,4.05
2022-12-19T16:09:34.946Z,3.97
2022-12-19T16:11:38.920Z,3.97
2022-12-19T16:13:42.515Z,3.87
2022-12-19T16:15:45.612Z,3.69
2022-12-19T16:17:48.727Z,3.54
2022-12-19T16:19:52.774Z,3.45
2022-12-19T16:21:56.069Z,3.47
2022-12-19T16:23:58.677Z,3.30
2022-12-19T16:26:01.393Z,3.32
2022-12-19T16:28:06.999Z,3.27
2022-12-19T16:30:19.292Z,3.27
2022-12-19T16:32:24.286Z,3.37
2022-12-19T16:34:27.383Z,3.41
2022-12-19T16:36:31.659Z,3.38
2022-12-19T16:38:34.463Z,3.48
2022-12-19T16:40:37.182Z,3.71
2022-12-19T16:42:40.139Z,3.69
2022-12-19T16:44:44.253Z,3.65
2022-12-19T16:46:50.963Z,3.56
2022-12-19T16:48:54.190Z,3.63
2022-12-19T16:50:57.879Z,3.65
2022-12-19T16:53:01.907Z,3.61
2022-12-19T16:55:04.854Z,3.73
2022-12-19T16:57:16.763Z,3.66
2022-12-19T16:59:22.953Z,3.73
2022-12-19T17:01:25.723Z,3.89
2022-12-19T17:03:33.493Z,3.77
2022-12-19T17:05:36.417Z,3.73
2022-12-19T17:07:39.180Z,3.75
2022-12-19T17:09:43.190Z,3.76
2022-12-19T17:11:48.963Z,3.81
2022-12-19T17:13:54.647Z,3.85
2022-12-19T17:15:59.385Z,3.91
2022-12-19T17:18:05.476Z,4.04
2022-12-19T17:20:17.428Z,3.99
2022-12-19T17:22:21.363Z,3.98
2022-12-19T17:24:24.393Z,3.97
2022-12-19T17:26:28.522Z,3.96
2022-12-19T17:28:31.147Z,4.02
2022-12-19T17:30:34.960Z,3.75
2022-12-19T17:32:37.744Z,3.76
2022-12-19T17:34:40.496Z,3.94
2022-12-19T17:36:43.138Z,4.13
2022-12-19T17:38:46.287Z,4.17
2022-12-19T17:40:49.031Z,4.27
2022-12-19T17:42:53.430Z,4.21
2022-12-19T17:44:56.225Z,4.19
2022-12-19T17:46:59.670Z,4.12
2022-12-19T17:49:02.384Z,4.13
2022-12-19T17:51:05.217Z,4.21
2022-12-19T17:53:14.128Z,4.25
2022-12-19T17:55:20.112Z,4.27
2022-12-19T17:57:22.815Z,4.31
2022-12-19T17:59:26.807Z,4.27
2022-12-19T18:01:30.400Z,4.13
2022-12-19T18:03:33.372Z,4.28
2022-12-19T18:05:37.300Z,4.25
2022-12-19T18:07:40.943Z,4.09
2022-12-19T18:09:44.318Z,4.03
2022-12-19T18:11:47.275Z,3.98
2022-12-19T18:13:50.036Z,4.13
2022-12-19T18:15:56.813Z,4.03
2022-12-19T18:18:00.029Z,4.00
2022-12-19T18:20:03.279Z,4.11
2022-12-19T18:22:07.824Z,4.05
2022-12-19T18:24:12.107Z,4.00
2022-12-19T18:26:15.574Z,4.09
2022-12-19T18:28:18.386Z,3.95
2022-12-19T18:30:23.297Z,4.09
2022-12-19T18:32:27.443Z,4.00
2022-12-19T18:34:32.348Z,4.05
2022-12-19T18:36:40.020Z,3.99
2022-12-19T18:38:42.698Z,3.92
2022-12-19T18:40:45.815Z,3.85
2022-12-19T18:42:48.929Z,3.77
2022-12-19T18:44:51.789Z,3.67
2022-12-19T18:46:54.483Z,3.62
2022-12-19T18:48:58.971Z,3.55
2022-12-19T18:51:02.194Z,3.53
2022-12-19T18:53:11.670Z,3.53
2022-12-19T18:55:17.760Z,3.50
2022-12-19T18:57:20.389Z,3.46
2022-12-19T18:59:23.140Z,3.52
2022-12-19T19:01:26.980Z,3.61
2022-12-19T19:03:32.402Z,3.55
2022-12-19T19:05:40.448Z,3.58
2022-12-19T19:07:43.147Z,3.58
2022-12-19T19:09:45.811Z,3.60
2022-12-19T19:11:48.557Z,3.64
2022-12-19T19:13:51.459Z,3.67
2022-12-19T19:15:56.461Z,3.56
2022-12-19T19:18:00.993Z,3.61
2022-12-19T19:20:04.427Z,3.68
2022-12-19T19:22:08.592Z,3.50
2022-12-19T19:24:14.604Z,3.60
2022-12-19T19:26:17.325Z,3.66
2022-12-19T19:28:20.071Z,3.72
2022-12-19T19:30:23.542Z,3.67
2022-12-19T19:32:26.863Z,3.56
2022-12-19T19:34:33.050Z,3.60
2022-12-19T19:36:39.512Z,3.62
2022-12-19T19:38:46.634Z,3.58
2022-12-19T19:40:49.315Z,3.60
2022-12-19T19:42:52.151Z,3.58
2022-12-19T19:44:54.801Z,3.51
2022-12-19T19:46:57.528Z,3.48
2022-12-19T19:49:00.293Z,3.53
2022-12-19T19:51:02.984Z,3.48
2022-12-19T19:53:05.969Z,3.47
2022-12-19T19:55:10.918Z,3.59
2022-12-19T19:57:13.568Z,3.54
2022-12-19T19:59:16.264Z,3.61
2022-12-19T20:01:19.149Z,3.70
2022-12-19T20:03:23.447Z,3.81
2022-12-19T20:05:26.503Z,3.92
2022-12-19T20:07:29.209Z,3.95
2022-12-19T20:09:32.339Z,3.96
2022-12-19T20:11:36.383Z,4.00
2022-12-19T20:13:39.367Z,3.90
2022-12-19T20:15:49.331Z,3.85
2022-12-19T20:17:52.930Z,3.82
2022-12-19T20:19:55.569Z,3.74
2022-12-19T20:22:00.115Z,3.82
2022-12-19T20:24:02.993Z,3.70
2022-12-19T20:26:06.810Z,3.62
2022-12-19T20:28:11.007Z,3.64
2022-12-19T20:30:14.428Z,3.74
2022-12-19T20:32:17.215Z,3.63
2022-12-19T20:34:20.838Z,3.64
2022-12-19T20:36:25.034Z,3.55
2022-12-19T20:38:28.753Z,3.55
2022-12-19T20:40:31.503Z,3.71
2022-12-19T20:42:34.176Z,3.68
2022-12-19T20:44:38.259Z,3.82
2022-12-19T20:46:41.065Z,3.86
2022-12-19T20:48:44.748Z,3.84
2022-12-19T20:50:47.447Z,3.81
2022-12-19T20:52:50.130Z,3.65
2022-12-19T20:54:52.753Z,3.50
2022-12-19T20:56:55.414Z,3.46
2022-12-19T20:58:58.605Z,3.47
2022-12-19T21:01:07.286Z,3.61
2022-12-19T21:05:32.646Z,3.54
2022-12-19T21:07:35.393Z,3.58
2022-12-19T21:09:38.603Z,3.54
2022-12-19T21:11:41.264Z,3.53
2022-12-19T21:13:44.326Z,3.53
2022-12-19T21:15:47.605Z,3.63
2022-12-19T21:17:51.647Z,3.63
2022-12-19T21:19:54.327Z,3.58
2022-12-19T21:21:57.086Z,3.53
2022-12-19T21:24:02.132Z,3.56
2022-12-19T21:26:05.765Z,3.55
2022-12-19T21:28:09.436Z,3.51
2022-12-19T21:30:12.629Z,3.62
2022-12-19T21:32:19.054Z,3.64
2022-12-19T21:34:23.659Z,3.61
2022-12-19T21:36:28.277Z,3.69
2022-12-19T21:38:30.917Z,3.69
2022-12-19T21:40:33.652Z,3.75
2022-12-19T21:42:36.251Z,3.69
2022-12-19T21:44:38.852Z,3.76
2022-12-19T21:46:41.534Z,3.67
2022-12-19T21:48:46.543Z,3.69
2022-12-19T21:50:57.412Z,3.70
2022-12-19T21:53:00.320Z,3.72
2022-12-19T21:55:03.069Z,3.73
2022-12-19T21:57:05.720Z,3.73
2022-12-19T21:59:11.771Z,3.65
2022-12-19T22:01:15.699Z,3.50
2022-12-19T22:03:18.589Z,3.34
2022-12-19T22:05:21.486Z,3.26
2022-12-19T22:07:25.568Z,3.20
2022-12-19T22:09:28.397Z,3.23
2022-12-19T22:11:31.357Z,3.27
2022-12-19T22:13:34.125Z,3.35
2022-12-19T22:15:37.185Z,3.32
2022-12-19T22:17:39.850Z,3.40
2022-12-19T22:19:42.604Z,3.45
2022-12-19T22:21:46.462Z,3.52
2022-12-19T22:23:50.645Z,3.47
2022-12-19T22:26:01.210Z,3.56
2022-12-19T22:28:04.033Z,3.70
2022-12-19T22:30:11.122Z,3.66
2022-12-19T22:32:14.111Z,3.68
2022-12-19T22:34:18.343Z,3.69
2022-12-19T22:36:27.969Z,3.86
2022-12-19T22:38:31.146Z,3.84
2022-12-19T22:40:35.281Z,3.93
2022-12-19T22:42:37.961Z,3.86
2022-12-19T22:44:40.685Z,3.89
2022-12-19T22:46:43.556Z,3.83
2022-12-19T22:48:47.496Z,3.88
2022-12-19T22:50:50.188Z,3.93
2022-12-19T22:52:52.929Z,3.88
2022-12-19T22:54:55.545Z,3.85
2022-12-19T22:56:59.577Z,3.99
2022-12-19T22:59:04.781Z,3.93
2022-12-19T23:01:15.753Z,3.99
2022-12-19T23:03:18.636Z,3.96
2022-12-19T23:05:21.469Z,3.94
2022-12-19T23:07:24.151Z,3.95
2022-12-19T23:09:27.636Z,3.88
2022-12-19T23:11:33.402Z,3.84
2022-12-19T23:13:37.544Z,3.96
2022-12-19T23:15:40.204Z,3.99
2022-12-19T23:17:42.832Z,4.15
2022-12-19T23:19:45.502Z,4.25
2022-12-19T23:21:48.341Z,4.46
2022-12-19T23:23:52.813Z,4.45
2022-12-19T23:25:55.510Z,4.48
2022-12-19T23:27:58.248Z,4.45
2022-12-19T23:30:02.262Z,4.44
2022-12-19T23:32:05.333Z,4.32
2022-12-19T23:34:08.193Z,4.13
2022-12-19T23:36:11.260Z,4.08
2022-12-19T23:38:13.932Z,3.99
2022-12-19T23:40:17.310Z,3.81
2022-12-19T23:42:20.369Z,3.80
2022-12-19T23:44:23.349Z,3.78
2022-12-19T23:46:28.116Z,3.75
2022-12-19T23:48:30.908Z,3.71
2022-12-19T23:50:33.722Z,3.59
2022-12-19T23:52:36.388Z,3.67
2022-12-19T23:54:39.096Z,3.65
2022-12-19T23:56:41.774Z,3.39
2022-12-19T23:58:45.792Z,3.08
